Time;durP1;ratioP1;P1;durP2;ratioP2;P2;SDS_P1;SDS_P2;PMS_P1;PMS_P2;Temp;Humidity;BMP_temperature;BMP_pressure;BME280_temperature;BME280_humidity;BME280_pressure;Samples;Min_cycle;Max_cycle;Signal;HPM_P1;HPM_P2
2022/03/15 00:00:52;;;;;;;17.40;8.45;;;3.60;99.90;;;;;;4996107;28;20077;-83
2022/03/15 00:03:18;;;;;;;14.93;8.15;;;3.60;99.90;;;;;;4994937;28;20463;-82
2022/03/15 00:05:44;;;;;;;15.60;7.75;;;3.80;99.90;;;;;;5002774;28;20038;-82
2022/03/15 00:08:10;;;;;;;15.43;7.72;;;4.60;99.90;;;;;;4984811;28;20053;-82
2022/03/15 00:10:36;;;;;;;15.77;7.45;;;4.90;99.90;;;;;;4997010;28;20054;-82
2022/03/15 00:13:02;;;;;;;15.50;7.43;;;3.50;99.90;;;;;;4965972;28;20042;-82
2022/03/15 00:15:28;;;;;;;12.85;7.25;;;3.50;99.90;;;;;;4995581;28;20050;-81
2022/03/15 00:17:54;;;;;;;13.10;7.20;;;4.30;99.90;;;;;;4965957;28;20072;-82
2022/03/15 00:20:23;;;;;;;14.35;7.80;;;3.80;99.90;;;;;;4981708;28;20049;-82
2022/03/15 00:22:51;;;;;;;16.52;7.40;;;3.40;99.90;;;;;;4982489;28;20054;-81
2022/03/15 00:25:18;;;;;;;17.38;7.45;;;3.50;99.90;;;;;;4995534;28;20510;-81
2022/03/15 00:27:50;;;;;;;14.68;8.00;;;4.00;99.90;;;;;;4971315;28;20516;-81
2022/03/15 00:30:17;;;;;;;13.73;7.72;;;3.50;99.90;;;;;;4981757;28;20053;-81
2022/03/15 00:32:43;;;;;;;14.23;8.00;;;3.60;99.90;;;;;;4997326;28;20054;-82
2022/03/15 00:35:18;;;;;;;15.30;7.60;;;4.50;99.90;;;;;;5001750;28;20077;-82
2022/03/15 00:37:45;;;;;;;13.68;7.25;;;4.70;99.90;;;;;;4998471;28;20088;-80
2022/03/15 00:40:12;;;;;;;14.63;7.03;;;3.50;99.90;;;;;;4996091;28;20060;-80
2022/03/15 00:42:38;;;;;;;13.50;7.80;;;3.50;99.90;;;;;;4981580;28;20183;-80
2022/03/15 00:45:05;;;;;;;15.70;8.77;;;3.50;99.90;;;;;;4995049;28;20096;-80
2022/03/15 00:47:31;;;;;;;15.70;8.38;;;3.50;99.90;;;;;;4996370;28;20046;-80
2022/03/15 00:49:57;;;;;;;17.52;8.00;;;3.60;99.90;;;;;;5000547;28;20046;-80
2022/03/15 00:52:23;;;;;;;14.23;8.20;;;3.60;99.90;;;;;;4996341;28;20080;-80
2022/03/15 00:54:49;;;;;;;16.02;8.43;;;3.90;99.90;;;;;;4993446;28;20108;-79
2022/03/15 00:57:15;;;;;;;20.98;8.38;;;3.70;99.90;;;;;;4983407;28;20073;-80
2022/03/15 00:59:41;;;;;;;14.10;8.10;;;5.30;99.90;;;;;;4996413;28;20123;-80
2022/03/15 01:02:07;;;;;;;20.63;9.30;;;3.80;99.90;;;;;;4988981;28;20049;-80
2022/03/15 01:04:32;;;;;;;15.82;8.82;;;3.90;99.90;;;;;;4989080;28;20404;-80
2022/03/15 01:06:58;;;;;;;15.07;9.00;;;3.90;99.90;;;;;;4982003;28;20050;-80
2022/03/15 01:09:26;;;;;;;12.75;8.32;;;5.00;99.90;;;;;;4993247;28;20107;-81
2022/03/15 01:11:52;;;;;;;17.52;8.40;;;4.00;99.90;;;;;;4972945;28;20108;-80
2022/03/15 01:14:17;;;;;;;15.25;8.10;;;4.80;99.90;;;;;;4968003;28;20050;-80
2022/03/15 01:16:43;;;;;;;13.93;7.07;;;4.00;99.90;;;;;;4984030;28;20108;-79
2022/03/15 01:19:09;;;;;;;18.42;8.30;;;4.20;99.90;;;;;;4984292;28;20076;-81
2022/03/15 01:21:37;;;;;;;12.57;8.10;;;4.20;99.90;;;;;;4997685;28;20483;-79
2022/03/15 01:24:07;;;;;;;19.55;7.80;;;4.20;99.90;;;;;;4996033;28;20046;-80
2022/03/15 01:26:34;;;;;;;14.10;7.50;;;4.20;99.90;;;;;;4999018;28;20057;-81
2022/03/15 01:29:01;;;;;;;15.98;8.38;;;4.30;99.90;;;;;;5009916;28;20131;-80
2022/03/15 01:31:27;;;;;;;14.40;7.57;;;4.40;99.90;;;;;;4992909;28;20586;-80
2022/03/15 01:33:53;;;;;;;18.10;8.00;;;4.40;99.90;;;;;;4995891;28;20109;-80
2022/03/15 01:36:19;;;;;;;20.45;8.68;;;4.70;99.90;;;;;;4997199;28;20125;-80
2022/03/15 01:38:45;;;;;;;18.23;8.20;;;4.50;99.90;;;;;;4995772;28;20038;-81
2022/03/15 01:41:11;;;;;;;16.90;8.20;;;5.80;99.90;;;;;;4993927;28;20052;-80
2022/03/15 01:43:39;;;;;;;15.35;7.53;;;4.70;99.90;;;;;;5011206;28;20042;-80
2022/03/15 01:46:06;;;;;;;15.77;7.20;;;4.80;99.90;;;;;;4994729;28;20057;-82
2022/03/15 01:48:32;;;;;;;18.90;7.80;;;4.80;99.90;;;;;;4996953;28;20054;-81
2022/03/15 01:50:58;;;;;;;18.50;8.52;;;5.00;99.90;;;;;;4995553;28;20054;-81
2022/03/15 01:53:25;;;;;;;21.92;9.10;;;4.90;99.90;;;;;;4997098;28;20106;-83
2022/03/15 01:55:51;;;;;;;19.02;7.72;;;5.00;99.90;;;;;;4996482;28;20054;-81
2022/03/15 01:58:17;;;;;;;15.48;7.50;;;5.10;99.90;;;;;;4986539;28;20061;-81
2022/03/15 02:00:45;;;;;;;18.23;8.20;;;5.10;99.90;;;;;;4985905;28;20130;-82
2022/03/15 02:03:11;;;;;;;15.57;7.97;;;5.10;99.90;;;;;;4996903;28;20041;-83
2022/03/15 02:05:37;;;;;;;14.65;7.40;;;5.20;99.90;;;;;;4986104;28;20049;-82
2022/03/15 02:08:10;;;;;;;13.88;6.45;;;5.20;99.90;;;;;;4989673;28;20101;-82
2022/03/15 02:10:36;;;;;;;16.77;7.07;;;5.30;99.90;;;;;;4982778;28;20108;-79
2022/03/15 02:13:02;;;;;;;15.23;8.02;;;5.30;99.90;;;;;;4999610;28;20049;-81
2022/03/15 02:15:28;;;;;;;14.73;7.05;;;5.30;99.90;;;;;;4982464;28;20050;-80
2022/03/15 02:17:54;;;;;;;16.02;6.75;;;6.80;99.90;;;;;;5002729;28;20042;-79
2022/03/15 02:20:21;;;;;;;17.80;7.10;;;5.30;99.90;;;;;;4996918;28;20057;-80
2022/03/15 02:22:46;;;;;;;16.38;7.68;;;5.40;99.90;;;;;;4996956;28;20057;-80
2022/03/15 02:25:12;;;;;;;13.82;6.70;;;5.80;99.90;;;;;;4966819;28;20050;-80
2022/03/15 02:27:38;;;;;;;14.40;7.22;;;6.60;99.90;;;;;;4980595;28;20042;-79
2022/03/15 02:30:06;;;;;;;10.57;6.32;;;5.50;99.90;;;;;;4999026;28;20056;-80
2022/03/15 02:32:33;;;;;;;15.02;6.82;;;5.50;99.90;;;;;;4982791;28;20054;-80
2022/03/15 02:34:58;;;;;;;16.00;8.23;;;5.50;99.90;;;;;;4967865;28;20712;-79
2022/03/15 02:37:24;;;;;;;13.95;7.10;;;5.60;99.90;;;;;;5001449;28;20052;-80
2022/03/15 02:39:50;;;;;;;13.93;7.72;;;6.10;99.90;;;;;;4996409;28;20038;-79
2022/03/15 02:42:17;;;;;;;16.23;7.75;;;5.80;99.90;;;;;;4996695;28;20065;-79
2022/03/15 02:44:43;;;;;;;13.60;7.00;;;5.60;99.90;;;;;;4991065;28;20041;-82
2022/03/15 02:47:09;;;;;;;13.95;7.35;;;5.60;99.90;;;;;;4981259;28;20061;-80
2022/03/15 02:49:35;;;;;;;13.70;7.35;;;5.60;99.90;;;;;;4979738;28;20057;-80
2022/03/15 02:52:01;;;;;;;13.65;6.85;;;5.60;99.90;;;;;;4997041;28;20037;-80
2022/03/15 02:54:26;;;;;;;12.75;7.10;;;5.70;99.90;;;;;;5000805;28;20047;-79
2022/03/15 02:56:52;;;;;;;14.23;7.43;;;5.70;99.90;;;;;;4984712;28;20050;-80
2022/03/15 02:59:18;;;;;;;16.08;8.13;;;5.60;99.90;;;;;;4994745;28;20505;-80
2022/03/15 03:01:45;;;;;;;19.52;8.32;;;6.00;99.90;;;;;;4983124;28;20480;-80
2022/03/15 03:04:12;;;;;;;13.77;7.50;;;5.70;99.90;;;;;;4998217;28;20037;-80
2022/03/15 03:06:38;;;;;;;18.95;7.85;;;5.70;99.90;;;;;;5012226;28;20510;-80
2022/03/15 03:09:05;;;;;;;14.40;7.70;;;5.70;99.90;;;;;;5013251;28;20049;-80
2022/03/15 03:11:31;;;;;;;17.67;8.52;;;5.90;99.90;;;;;;4996301;28;20125;-80
2022/03/15 03:13:56;;;;;;;14.05;8.18;;;5.80;99.90;;;;;;4985016;28;20360;-80
2022/03/15 03:16:23;;;;;;;13.55;8.50;;;5.80;99.90;;;;;;4996866;28;20042;-80
2022/03/15 03:18:49;;;;;;;15.18;7.82;;;5.80;99.90;;;;;;4989690;28;20132;-78
2022/03/15 03:21:15;;;;;;;15.75;7.90;;;5.70;99.90;;;;;;5013539;28;20065;-80
2022/03/15 03:23:41;;;;;;;14.88;7.72;;;5.70;99.90;;;;;;4996876;28;20548;-80
2022/03/15 03:26:08;;;;;;;13.43;8.30;;;6.40;99.90;;;;;;4964932;28;20046;-81
2022/03/15 03:28:36;;;;;;;15.90;7.85;;;5.70;99.90;;;;;;4981576;28;20385;-80
2022/03/15 03:31:05;;;;;;;15.75;8.48;;;7.20;99.90;;;;;;4997931;28;20096;-81
2022/03/15 03:33:32;;;;;;;11.50;7.05;;;5.60;99.90;;;;;;5015457;28;20112;-80
2022/03/15 03:35:58;;;;;;;12.85;8.15;;;5.60;99.90;;;;;;4970800;28;20042;-80
2022/03/15 03:38:24;;;;;;;9.98;6.97;;;5.60;99.90;;;;;;4967791;28;20042;-80
2022/03/15 03:40:50;;;;;;;14.80;8.18;;;5.60;99.90;;;;;;4998901;28;20494;-80
2022/03/15 03:43:16;;;;;;;12.65;7.03;;;6.20;99.90;;;;;;4999535;28;20068;-82
2022/03/15 03:45:42;;;;;;;11.18;7.40;;;5.80;99.90;;;;;;4999291;28;20050;-81
2022/03/15 03:48:08;;;;;;;11.63;7.22;;;5.40;99.90;;;;;;5000539;28;20092;-82
2022/03/15 03:50:35;;;;;;;14.45;7.70;;;5.40;99.90;;;;;;5015708;28;20100;-82
2022/03/15 03:53:04;;;;;;;15.07;8.30;;;5.40;99.90;;;;;;4999836;28;20049;-82
2022/03/15 03:55:31;;;;;;;13.20;7.45;;;5.30;99.90;;;;;;4981396;28;20153;-82
2022/03/15 03:57:57;;;;;;;9.93;6.70;;;5.30;99.90;;;;;;4997790;28;20046;-81
2022/03/15 04:00:23;;;;;;;9.80;6.65;;;5.30;99.90;;;;;;4981218;28;20057;-81
2022/03/15 04:02:50;;;;;;;10.68;6.63;;;5.30;99.90;;;;;;5004951;28;20038;-81
2022/03/15 04:05:16;;;;;;;12.48;6.80;;;5.20;99.90;;;;;;4993356;28;20057;-82
2022/03/15 04:07:42;;;;;;;14.27;6.72;;;5.10;99.90;;;;;;4997543;28;20046;-83
2022/03/15 04:10:09;;;;;;;13.48;6.47;;;5.00;99.90;;;;;;4996575;28;20081;-82
2022/03/15 04:12:38;;;;;;;13.10;6.75;;;5.00;99.90;;;;;;4996211;28;20050;-81
2022/03/15 04:15:05;;;;;;;10.68;6.43;;;5.00;99.90;;;;;;5012993;28;20038;-82
2022/03/15 04:17:34;;;;;;;10.38;6.53;;;5.00;99.90;;;;;;4970541;28;20096;-82
2022/03/15 04:20:00;;;;;;;11.20;6.47;;;4.90;99.90;;;;;;4972099;28;20054;-82
2022/03/15 04:22:26;;;;;;;13.15;7.53;;;4.90;99.90;;;;;;4994458;28;20061;-82
2022/03/15 04:24:52;;;;;;;12.85;7.22;;;5.00;99.90;;;;;;4993098;28;20050;-82
2022/03/15 04:27:18;;;;;;;13.23;7.55;;;4.90;99.90;;;;;;4998735;28;20137;-81
2022/03/15 04:29:44;;;;;;;13.07;7.93;;;5.00;99.90;;;;;;4996531;28;20157;-81
2022/03/15 04:32:11;;;;;;;14.23;7.60;;;4.90;99.90;;;;;;4999709;28;20077;-83
2022/03/15 04:34:36;;;;;;;11.23;7.65;;;4.90;99.90;;;;;;4979308;28;20065;-82
2022/03/15 04:37:02;;;;;;;12.20;7.85;;;6.00;99.90;;;;;;5012828;28;20606;-81
2022/03/15 04:39:28;;;;;;;11.90;7.93;;;4.90;99.90;;;;;;4982933;28;20132;-82
2022/03/15 04:41:54;;;;;;;14.55;9.40;;;5.00;99.90;;;;;;4980981;28;20077;-81
2022/03/15 04:44:20;;;;;;;12.82;9.02;;;5.00;99.90;;;;;;4995606;28;20049;-82
2022/03/15 04:46:46;;;;;;;16.25;8.48;;;5.50;99.90;;;;;;4973288;28;20046;-83
2022/03/15 04:49:12;;;;;;;17.02;8.38;;;5.00;99.90;;;;;;5000483;28;20133;-83
2022/03/15 04:51:38;;;;;;;15.23;9.07;;;4.90;99.90;;;;;;4980407;28;20050;-82
2022/03/15 04:54:04;;;;;;;17.13;8.63;;;5.00;99.90;;;;;;4982319;28;20060;-82
2022/03/15 04:56:30;;;;;;;13.60;8.38;;;4.90;99.90;;;;;;4994662;28;20600;-82
2022/03/15 04:58:55;;;;;;;12.13;8.70;;;5.30;99.90;;;;;;4982307;28;20057;-82
2022/03/15 05:01:21;;;;;;;26.83;8.95;;;6.40;99.90;;;;;;4996192;28;20061;-82
2022/03/15 05:03:47;;;;;;;14.35;8.18;;;4.90;99.90;;;;;;4965573;28;20046;-82
2022/03/15 05:06:12;;;;;;;18.30;9.30;;;5.70;99.90;;;;;;4994402;28;20108;-83
2022/03/15 05:08:38;;;;;;;14.43;8.10;;;4.90;99.90;;;;;;4979005;28;20479;-82
2022/03/15 05:11:07;;;;;;;13.68;8.77;;;5.10;99.90;;;;;;4981775;28;20089;-82
2022/03/15 05:13:40;;;;;;;13.10;8.40;;;4.80;99.90;;;;;;4993630;28;20049;-82
2022/03/15 05:16:15;;;;;;;14.02;8.43;;;4.80;99.90;;;;;;4964509;28;20042;-81
2022/03/15 05:18:44;;;;;;;14.98;8.73;;;4.80;99.90;;;;;;4979190;28;20456;-80
2022/03/15 05:21:14;;;;;;;17.58;8.27;;;4.80;99.90;;;;;;4983308;28;20045;-81
2022/03/15 05:23:41;;;;;;;13.93;8.70;;;4.80;99.90;;;;;;4995093;28;20046;-81
2022/03/15 05:26:07;;;;;;;12.02;8.13;;;4.70;99.90;;;;;;4993938;28;20046;-81
2022/03/15 05:28:33;;;;;;;15.73;8.90;;;4.70;99.90;;;;;;4985112;28;20826;-81
2022/03/15 05:30:58;;;;;;;15.18;9.35;;;4.90;99.90;;;;;;4994409;28;20057;-80
2022/03/15 05:33:24;;;;;;;14.65;8.95;;;5.90;99.90;;;;;;4994229;28;20061;-80
2022/03/15 05:35:50;;;;;;;13.10;7.40;;;4.70;99.90;;;;;;5011439;28;20158;-81
2022/03/15 05:38:16;;;;;;;12.75;8.15;;;4.70;99.90;;;;;;4993988;28;20249;-81
2022/03/15 05:40:43;;;;;;;11.93;7.80;;;4.70;99.90;;;;;;4993601;28;20054;-81
2022/03/15 05:43:08;;;;;;;11.85;7.63;;;5.90;99.90;;;;;;4983435;28;20061;-81
2022/03/15 05:45:34;;;;;;;10.32;6.80;;;4.60;99.90;;;;;;4977978;28;20042;-81
2022/03/15 05:48:00;;;;;;;10.57;7.55;;;4.60;99.90;;;;;;5000340;28;20050;-82
2022/03/15 05:50:26;;;;;;;11.10;7.15;;;4.70;99.90;;;;;;4983223;28;20074;-82
2022/03/15 05:52:52;;;;;;;11.68;6.70;;;4.70;99.90;;;;;;4994248;28;20111;-82
2022/03/15 05:55:18;;;;;;;12.13;8.07;;;4.60;99.90;;;;;;4992552;28;20046;-82
2022/03/15 05:57:44;;;;;;;10.60;7.18;;;4.50;99.90;;;;;;5027802;28;20093;-82
2022/03/15 06:00:11;;;;;;;11.40;7.68;;;4.50;99.90;;;;;;4995736;28;20081;-81
2022/03/15 06:02:36;;;;;;;14.15;7.25;;;4.50;99.90;;;;;;4982375;28;20061;-81
2022/03/15 06:05:03;;;;;;;11.63;7.65;;;4.50;99.90;;;;;;4976808;28;20435;-81
2022/03/15 06:07:30;;;;;;;12.85;7.35;;;4.50;99.90;;;;;;4997537;28;20049;-82
2022/03/15 06:09:58;;;;;;;13.77;7.03;;;5.40;99.90;;;;;;4994031;28;20404;-81
2022/03/15 06:12:24;;;;;;;11.95;6.88;;;4.70;99.90;;;;;;4986805;28;20042;-82
2022/03/15 06:14:50;;;;;;;9.25;6.82;;;4.50;99.90;;;;;;4978390;28;20057;-81
2022/03/15 06:17:16;;;;;;;12.07;7.70;;;4.50;99.90;;;;;;4979335;28;20077;-81
2022/03/15 06:19:42;;;;;;;11.00;8.07;;;4.50;99.90;;;;;;4994312;28;20057;-81
2022/03/15 06:22:08;;;;;;;14.70;7.85;;;4.60;99.90;;;;;;4995780;28;20052;-81
2022/03/15 06:24:36;;;;;;;12.38;7.80;;;4.70;99.90;;;;;;4976876;28;20630;-82
2022/03/15 06:27:03;;;;;;;11.35;7.78;;;6.00;99.90;;;;;;4998249;28;20042;-83
2022/03/15 06:29:30;;;;;;;14.02;7.80;;;4.30;99.90;;;;;;5008379;28;20050;-82
2022/03/15 06:31:56;;;;;;;15.52;8.45;;;4.40;99.90;;;;;;4993193;28;20061;-82
2022/03/15 06:34:22;;;;;;;15.10;9.32;;;4.50;99.90;;;;;;4994031;28;20061;-82
2022/03/15 06:36:48;;;;;;;19.30;8.88;;;4.50;99.90;;;;;;4982483;28;20046;-82
2022/03/15 06:39:14;;;;;;;16.15;9.23;;;4.40;99.90;;;;;;4992921;28;20093;-82
2022/03/15 06:41:42;;;;;;;13.80;9.98;;;4.50;99.90;;;;;;4995461;28;20145;-82
2022/03/15 06:44:09;;;;;;;14.65;9.68;;;4.70;99.90;;;;;;5001127;28;20053;-81
2022/03/15 06:46:35;;;;;;;18.88;10.50;;;4.20;99.90;;;;;;5014594;28;20046;-82
2022/03/15 06:49:01;;;;;;;17.90;10.57;;;3.20;99.90;;;;;;5004092;28;20389;-81
2022/03/15 06:51:27;;;;;;;17.52;10.90;;;6.30;99.90;;;;;;4989312;28;20088;-82
2022/03/15 06:53:53;;;;;;;15.13;9.57;;;4.70;99.90;;;;;;5014080;28;20148;-81
2022/03/15 06:56:20;;;;;;;16.55;11.30;;;4.70;99.90;;;;;;4998132;28;20137;-82
2022/03/15 06:58:46;;;;;;;17.75;11.85;;;4.70;99.90;;;;;;4996929;28;20443;-81
2022/03/15 07:01:12;;;;;;;18.38;11.70;;;5.50;99.90;;;;;;5012976;28;20061;-80
2022/03/15 07:03:41;;;;;;;20.05;12.00;;;4.90;99.90;;;;;;4986643;28;20061;-81
2022/03/15 07:06:07;;;;;;;19.25;12.60;;;5.00;99.90;;;;;;4983744;28;20042;-81
2022/03/15 07:08:33;;;;;;;19.20;12.43;;;5.90;99.90;;;;;;4983300;28;20136;-80
2022/03/15 07:10:59;;;;;;;20.90;12.23;;;6.30;99.90;;;;;;4984242;28;20048;-80
2022/03/15 07:13:25;;;;;;;18.27;12.63;;;5.30;99.90;;;;;;4989287;28;20132;-80
2022/03/15 07:15:53;;;;;;;18.15;11.90;;;5.20;99.90;;;;;;4987185;28;20555;-83
2022/03/15 07:18:22;;;;;;;21.35;13.35;;;5.30;99.90;;;;;;4983204;28;20050;-83
2022/03/15 07:20:47;;;;;;;22.98;14.68;;;5.60;99.90;;;;;;5009770;28;20080;-81
2022/03/15 07:23:14;;;;;;;18.25;13.75;;;5.60;99.90;;;;;;4984214;28;20459;-82
2022/03/15 07:25:39;;;;;;;22.13;14.63;;;6.40;99.90;;;;;;4997965;28;20153;-80
2022/03/15 07:28:05;;;;;;;23.73;14.80;;;7.00;99.90;;;;;;4980537;28;20137;-81
2022/03/15 07:30:31;;;;;;;20.92;14.48;;;5.10;99.90;;;;;;4972201;28;20562;-81
2022/03/15 07:32:59;;;;;;;22.27;14.45;;;6.00;99.90;;;;;;4983388;28;20058;-82
2022/03/15 07:35:25;;;;;;;21.35;14.60;;;6.20;99.90;;;;;;5001346;28;20803;-81
2022/03/15 07:37:55;;;;;;;23.40;16.10;;;6.30;99.90;;;;;;4984336;28;20494;-81
2022/03/15 07:40:21;;;;;;;21.80;13.45;;;6.30;99.90;;;;;;5014687;28;20042;-80
2022/03/15 07:42:49;;;;;;;24.80;15.77;;;6.50;99.90;;;;;;4998067;28;20475;-82
2022/03/15 07:45:15;;;;;;;24.83;14.32;;;6.50;99.90;;;;;;4999035;28;20041;-82
2022/03/15 07:47:41;;;;;;;20.38;13.65;;;7.40;99.90;;;;;;4985041;28;20077;-81
2022/03/15 07:50:07;;;;;;;24.45;13.95;;;6.70;99.90;;;;;;5001227;28;20042;-81
2022/03/15 07:52:33;;;;;;;18.08;13.10;;;6.80;99.90;;;;;;4997507;28;20035;-83
2022/03/15 07:54:59;;;;;;;22.92;13.05;;;6.90;99.90;;;;;;4971822;28;20105;-82
2022/03/15 07:57:25;;;;;;;18.33;12.73;;;7.00;99.90;;;;;;4965636;28;20547;-81
2022/03/15 07:59:51;;;;;;;19.30;12.77;;;7.10;99.90;;;;;;4984972;28;20444;-81
2022/03/15 08:02:17;;;;;;;20.50;12.70;;;7.70;99.90;;;;;;4987846;28;20096;-81
2022/03/15 08:04:43;;;;;;;20.63;12.75;;;7.20;99.90;;;;;;4997859;28;20038;-81
2022/03/15 08:07:09;;;;;;;19.67;12.93;;;7.30;99.90;;;;;;4968828;28;20046;-81
2022/03/15 08:09:36;;;;;;;16.52;12.35;;;7.40;99.90;;;;;;5011388;28;20114;-81
2022/03/15 08:12:02;;;;;;;18.42;12.15;;;7.50;99.90;;;;;;4984036;28;20570;-80
2022/03/15 08:14:28;;;;;;;22.30;13.20;;;7.60;99.90;;;;;;4988974;28;20491;-81
2022/03/15 08:16:53;;;;;;;21.02;12.38;;;7.60;99.90;;;;;;4985482;28;20046;-81
2022/03/15 08:19:20;;;;;;;18.10;11.60;;;7.80;99.90;;;;;;4982924;28;20049;-82
2022/03/15 08:21:46;;;;;;;16.45;11.73;;;7.90;99.90;;;;;;4967537;28;20124;-80
2022/03/15 08:24:14;;;;;;;19.45;11.68;;;7.90;99.90;;;;;;5002276;28;20567;-82
2022/03/15 08:26:40;;;;;;;17.05;12.23;;;8.00;99.90;;;;;;4995540;28;20052;-84
2022/03/15 08:29:06;;;;;;;19.42;11.25;;;8.10;99.90;;;;;;4982292;28;20042;-84
2022/03/15 08:31:33;;;;;;;15.77;11.30;;;8.10;99.90;;;;;;5002933;28;20077;-84
2022/03/15 08:34:01;;;;;;;18.05;10.95;;;8.20;99.90;;;;;;4983812;28;20140;-84
2022/03/15 08:36:30;;;;;;;15.68;10.48;;;8.30;99.90;;;;;;5014204;28;20112;-84
2022/03/15 08:38:56;;;;;;;18.15;11.30;;;8.40;99.90;;;;;;4990380;28;20125;-83
2022/03/15 08:41:29;;;;;;;18.30;10.75;;;8.50;99.90;;;;;;4999910;28;20077;-87
2022/03/15 08:43:55;;;;;;;17.58;10.45;;;9.30;99.90;;;;;;5000725;28;20488;-84
2022/03/15 08:46:21;;;;;;;17.20;10.77;;;8.70;99.90;;;;;;4991443;28;20081;-87
2022/03/15 08:48:50;;;;;;;18.92;10.10;;;8.80;99.90;;;;;;5000323;28;20049;-86
2022/03/15 08:51:28;;;;;;;;;;;;;;;;;;;;;
2022/03/15 08:53:57;;;;;;;14.52;9.55;;;9.10;99.90;;;;;;5002114;28;20038;-88
2022/03/15 08:56:35;;;;;;;14.80;10.10;;;9.20;99.90;;;;;;4990848;28;20125;-88
2022/03/15 08:59:15;;;;;;;17.48;10.25;;;9.40;99.90;;;;;;4995842;28;20133;-88
2022/03/15 09:01:48;;;;;;;15.65;10.07;;;9.40;99.90;;;;;;4997515;28;20042;-87
2022/03/15 09:04:13;;;;;;;16.20;9.32;;;9.50;99.90;;;;;;4984919;28;20972;-87
2022/03/15 09:06:42;;;;;;;14.75;9.68;;;9.60;99.90;;;;;;4989796;28;20050;-88
2022/03/15 09:09:21;;;;;;;14.68;9.52;;;9.70;99.90;;;;;;5001407;28;20058;-86
2022/03/15 09:11:57;;;;;;;15.68;9.70;;;8.90;99.90;;;;;;5001864;28;20511;-87
2022/03/15 09:14:23;;;;;;;17.75;9.73;;;9.90;99.90;;;;;;5002054;28;20121;-86
2022/03/15 09:16:52;;;;;;;18.20;9.40;;;9.80;99.90;;;;;;4986163;28;20051;-85
2022/03/15 09:19:22;;;;;;;16.58;9.88;;;10.10;99.90;;;;;;5001286;28;20120;-91
2022/03/15 09:21:48;;;;;;;19.30;11.05;;;9.90;99.90;;;;;;4985202;28;20050;-82
2022/03/15 09:24:16;;;;;;;15.75;9.13;;;9.30;99.90;;;;;;5012270;28;20042;-82
2022/03/15 09:26:42;;;;;;;17.20;9.55;;;10.00;99.90;;;;;;4988799;28;20061;-82
2022/03/15 09:29:13;;;;;;;15.57;10.48;;;10.00;99.90;;;;;;4996602;28;20046;-80
2022/03/15 09:31:39;;;;;;;18.33;10.20;;;10.00;99.90;;;;;;5004579;28;20399;-84
2022/03/15 09:34:08;;;;;;;14.38;9.95;;;10.00;99.90;;;;;;4991369;28;20060;-86
2022/03/15 09:36:34;;;;;;;16.02;10.23;;;10.00;99.90;;;;;;4999194;28;20058;-88
2022/03/15 09:39:05;;;;;;;20.77;10.55;;;10.10;99.90;;;;;;4975388;28;20045;-88
2022/03/15 09:41:35;;;;;;;17.67;10.48;;;9.70;99.90;;;;;;4990508;28;20053;-86
2022/03/15 09:44:02;;;;;;;15.48;10.48;;;10.10;99.90;;;;;;4983209;28;20050;-87
2022/03/15 09:46:31;;;;;;;16.13;10.65;;;10.60;99.90;;;;;;5006417;28;20112;-85
2022/03/15 09:49:00;;;;;;;18.10;10.32;;;10.10;99.90;;;;;;4984229;28;20058;-88
2022/03/15 09:51:32;;;;;;;14.88;10.05;;;10.10;99.90;;;;;;4990474;28;20042;-87
2022/03/15 09:53:59;;;;;;;16.25;10.80;;;10.20;99.90;;;;;;4982572;28;20050;-88
2022/03/15 09:56:28;;;;;;;16.63;11.68;;;10.20;99.90;;;;;;4990337;28;20046;-88
2022/03/15 09:58:55;;;;;;;15.68;10.73;;;10.20;99.90;;;;;;4990010;28;20436;-88
2022/03/15 10:01:26;;;;;;;18.30;11.55;;;10.20;99.90;;;;;;4989610;28;20046;-87
2022/03/15 10:03:51;;;;;;;19.40;11.82;;;10.10;99.90;;;;;;4997244;28;20057;-87
2022/03/15 10:06:19;;;;;;;16.23;11.35;;;10.20;99.90;;;;;;4984132;28;20053;-88
2022/03/15 10:08:45;;;;;;;18.45;10.88;;;10.20;99.90;;;;;;4980367;28;20042;-87
2022/03/15 10:11:12;;;;;;;20.33;11.77;;;10.20;99.90;;;;;;4983520;28;20061;-88
2022/03/15 10:13:39;;;;;;;19.60;12.15;;;10.10;99.90;;;;;;4995682;28;20113;-88
2022/03/15 10:16:05;;;;;;;19.33;10.70;;;10.10;99.90;;;;;;4990012;28;20046;-87
2022/03/15 10:18:31;;;;;;;16.33;11.38;;;10.10;99.90;;;;;;4988156;28;20124;-89
2022/03/15 10:20:57;;;;;;;18.63;11.07;;;10.10;99.90;;;;;;4999702;28;20157;-87
2022/03/15 10:23:29;;;;;;;17.42;11.85;;;10.10;99.90;;;;;;4993790;28;20109;-88
2022/03/15 10:25:59;;;;;;;17.80;11.40;;;10.00;99.90;;;;;;4988234;28;20045;-86
2022/03/15 10:28:25;;;;;;;15.77;11.30;;;10.00;99.90;;;;;;4986859;28;20063;-88
2022/03/15 10:30:51;;;;;;;18.42;12.25;;;9.90;99.90;;;;;;5001143;28;20038;-88
2022/03/15 10:33:20;;;;;;;19.27;11.52;;;9.30;99.90;;;;;;4985694;28;20054;-87
2022/03/15 10:35:49;;;;;;;19.75;11.38;;;10.00;99.90;;;;;;5001215;28;20042;-88
2022/03/15 10:38:15;;;;;;;17.15;11.95;;;10.00;99.90;;;;;;5004116;28;20053;-89
2022/03/15 10:40:44;;;;;;;20.63;12.30;;;10.00;99.90;;;;;;5004288;28;20061;-89
2022/03/15 10:43:20;;;;;;;15.77;10.95;;;9.90;99.90;;;;;;4993832;28;20060;-88
2022/03/15 10:45:57;;;;;;;17.67;11.63;;;10.00;99.90;;;;;;5003906;28;20139;-87
2022/03/15 10:48:32;;;;;;;17.10;12.38;;;10.00;99.90;;;;;;4992087;28;20046;-82
2022/03/15 10:51:04;;;;;;;20.40;12.13;;;10.10;99.90;;;;;;4990248;28;20053;-83
2022/03/15 10:53:43;;;;;;;17.45;12.05;;;10.10;99.90;;;;;;4986131;28;20053;-81
2022/03/15 10:56:25;;;;;;;18.80;12.25;;;10.20;99.90;;;;;;4978741;28;20042;-84
2022/03/15 10:58:59;;;;;;;20.33;12.77;;;10.20;99.90;;;;;;4998806;28;20704;-83
2022/03/15 11:01:26;;;;;;;20.88;12.65;;;10.20;99.90;;;;;;5007033;28;20073;-83
2022/03/15 11:04:12;;;;;;;20.23;11.93;;;10.30;99.90;;;;;;4982227;28;20293;-83
2022/03/15 11:06:46;;;;;;;16.02;12.15;;;10.40;99.90;;;;;;4985721;28;20046;-83
2022/03/15 11:09:29;;;;;;;20.92;12.35;;;10.10;99.90;;;;;;4980120;28;20108;-83
2022/03/15 11:12:05;;;;;;;20.52;12.13;;;9.70;99.90;;;;;;4988246;28;20065;-84
2022/03/15 11:14:48;;;;;;;21.17;13.20;;;10.60;99.90;;;;;;4996975;28;20053;-85
2022/03/15 11:17:24;;;;;;;19.88;13.55;;;10.60;99.90;;;;;;5013999;28;20500;-83
2022/03/15 11:19:55;;;;;;;19.25;13.00;;;10.60;99.90;;;;;;4980968;28;20061;-84
2022/03/15 11:22:27;;;;;;;21.10;13.55;;;10.80;99.90;;;;;;4980157;28;20148;-84
2022/03/15 11:25:20;;;;;;;22.73;13.65;;;9.70;99.90;;;;;;4990075;28;20049;-85
2022/03/15 11:27:52;;;;;;;19.90;12.98;;;10.80;99.90;;;;;;4999189;28;20049;-83
2022/03/15 11:30:28;;;;;;;21.58;13.20;;;10.90;99.90;;;;;;5000182;28;20488;-83
2022/03/15 11:32:55;;;;;;;22.13;14.85;;;10.90;99.90;;;;;;4985143;28;20289;-82
2022/03/15 11:35:31;;;;;;;20.80;14.52;;;9.80;99.90;;;;;;4983654;28;20050;-84
2022/03/15 11:38:09;;;;;;;22.92;14.02;;;10.90;99.90;;;;;;4969103;28;20079;-84
2022/03/15 11:40:39;;;;;;;24.92;16.77;;;11.10;99.90;;;;;;4981027;28;20050;-83
2022/03/15 11:43:20;;;;;;;21.10;16.38;;;10.90;99.90;;;;;;4984205;28;20411;-82
2022/03/15 11:46:06;;;;;;;23.98;16.30;;;10.20;99.90;;;;;;4983616;28;20100;-84
2022/03/15 11:48:53;;;;;;;22.65;15.85;;;10.80;99.90;;;;;;4998956;28;20077;-82
2022/03/15 11:51:32;;;;;;;25.45;15.23;;;10.80;99.90;;;;;;5002546;28;20133;-83
2022/03/15 11:54:16;;;;;;;19.95;14.60;;;10.80;99.90;;;;;;4996718;28;20092;-85
2022/03/15 11:56:51;;;;;;;24.02;14.68;;;10.80;99.90;;;;;;4997147;28;20073;-82
2022/03/15 11:59:17;;;;;;;21.55;15.25;;;10.80;99.90;;;;;;4994589;28;20050;-84
2022/03/15 12:01:44;;;;;;;21.13;15.38;;;10.70;99.90;;;;;;5000098;28;20056;-82
2022/03/15 12:04:11;;;;;;;20.95;14.15;;;10.80;99.90;;;;;;4983486;28;20050;-82
2022/03/15 12:06:54;;;;;;;25.98;15.40;;;10.80;99.90;;;;;;4982091;28;20504;-87
2022/03/15 12:09:31;;;;;;;21.67;14.63;;;10.90;99.90;;;;;;4991070;28;20038;-83
2022/03/15 12:12:10;;;;;;;23.13;15.07;;;11.00;99.90;;;;;;4982172;28;20058;-83
2022/03/15 12:14:51;;;;;;;21.88;15.05;;;10.30;99.90;;;;;;4968954;28;20104;-83
2022/03/15 12:17:18;;;;;;;22.73;14.32;;;11.40;99.90;;;;;;4986340;28;20050;-84
2022/03/15 12:19:50;;;;;;;20.23;13.90;;;11.20;99.90;;;;;;4983520;28;20057;-84
2022/03/15 12:22:24;;;;;;;22.17;13.00;;;11.30;99.90;;;;;;4998330;28;20050;-84
2022/03/15 12:25:10;;;;;;;17.98;12.40;;;11.30;99.90;;;;;;4990590;28;20044;-84
2022/03/15 12:27:49;;;;;;;22.15;11.68;;;11.40;99.90;;;;;;4981461;28;20356;-84
2022/03/15 12:30:29;;;;;;;16.38;10.68;;;11.60;99.90;;;;;;5009569;28;20116;-84
2022/03/15 12:32:58;;;;;;;13.63;9.00;;;11.70;99.90;;;;;;4998782;28;20106;-84
2022/03/15 12:35:30;;;;;;;11.43;7.80;;;11.80;99.90;;;;;;5012794;28;20050;-84
2022/03/15 12:38:10;;;;;;;11.02;6.57;;;11.90;99.90;;;;;;4984750;28;20092;-84
2022/03/15 12:41:40;;;;;;;;;;;;;;;;;;;;;
2022/03/15 12:44:40;;;;;;;8.40;4.37;;;12.00;99.90;;;;;;4997088;28;20054;-89
2022/03/15 12:47:43;;;;;;;7.60;4.53;;;12.30;99.90;;;;;;5002171;28;20100;-87
2022/03/15 12:50:38;;;;;;;7.20;4.88;;;12.30;99.90;;;;;;4970751;28;20080;-89